Terminal Aerodrome Forecast
Issued by NWS

Home | Current Version | Previous Version | Text Only | Print | Product List | Glossary On
Versions: 1 2 3 4 5 6 7 8 9 10 11 12 13
000
FTUS46 KPDT 070537
TAFALW
TAF
KALW 070537Z 0706/0806 18007KT P6SM VCSH BKN070 BKN100
      TEMPO 0706/0710 -RA BKN050 BKN100
     FM071500 02008KT P6SM SCT070 BKN100
     FM072000 36010KT P6SM BKN100=

USA.gov is the U.S. government's official web portal to all federal, state and local government web resources and services.